Aviation Digital Data Service (ADDS)

Output produced by METARs form (1826 UTC 16 August 2018)
found at http://www.aviationweather.gov/adds/metars/
 
UTDD 161800Z 08002MPS 8000 NSC 24/10 Q1010 R09/D NOSIG RMK QFE689/0919
TAF UTDD 161800Z 1619/1707 VRB02MPS 6000 FEW066CB SCT120
       
UTAA 161800Z 20004KT 9999 NSC 31/14 Q1010 R88/70D NOSIG
TAF UTAA 161632Z 1618/1718 33014KT 6000 SCT050 530009 
     TEMPO 1618/1702 24012KT 
     TEMPO 1702/1707 03012KT 
     BECMG 1707/1709 09014KT
       
UTAK 161800Z 27004KT CAVOK 27/20 Q1012 NOSIG
TAF UTAK 161630Z 1618/1718 04014KT 6000 SCT015 SCT100 530005 
     TEMPO 1618/1622 30016KT 
     TEMPO 1622/1702 3000 BR SCT005 
     BECMG 1702/ 1703 10014KT CAVOK 
     TEMPO 1703/1710 17014KT SCT023 SCT100 
     TEMPO 1710/1716 27016KT
       
UTAM 161800Z 36008KT 6000 NSC 28/12 Q1009 NOSIG
TAF UTAM 161630Z 1618/1718 35012KT 6000 SCT050 530007 
     TEMPO 1618/1702 VRB04KT 
     BECMG 1703/1705 04016KT CAVOK 530009 
     TEMPO 1706/1714 02014G24KT 3000 DRDU NSC 
       
UTAT 161800Z 02004KT CAVOK 27/13 Q1013 NOSIG
TAF UTAT 161642Z 1618/1718 35016KT 9999 SCT050 BKN100 530005 
     TEMPO 1618/1624 04012G22KT
       
UTAV 161800Z 33012KT CAVOK 30/10 Q1009 NOSIG
TAF UTAV 161630Z 1618/1718 34014KT CAVOK 530009 
     TEMPO 1618/1624 02014G24KT
       
UTDD 161800Z 08002MPS 8000 NSC 24/10 Q1010 R09/D NOSIG RMK QFE689/0919
TAF UTDD 161800Z 1619/1707 VRB02MPS 6000 FEW066CB SCT120
       
UTDK 161800Z 02006MPS 9999 NSC 28/11 Q1009 R01/09//70 RMK QFE699/0932
TAF UTDK 161800Z 1619/1704 03005MPS 6000 FEW066 SCT120 
     TEMPO 1619/1704 VRB02MPS
       
UTDL 161800Z 25006MPS 9999 SCT086 27/07 Q1010 R26/CLRD70 NOSIG RMK QFE719/0959
TAF UTDL 161800Z 1619/1704 24005MPS 9999 NSC 
     TEMPO 1619/1704 VRB02MPS
       
UTDT 161800Z 00000MPS 9999 FEW160 26/13 Q1006 35////// RMK QFE715/0954
TAF UTDT 161800Z 1619/1704 VRB02MPS 6000 FEW066 SCT120
       
UTFF 161800Z 18004KT 160V250 9999 NSC 27/06 Q1009 R18/CLRD70
TAF UTFF 161200Z 1613/1622 15010KT 9999 NSC 
     TEMPO 1613/1618 34008KT
       
UTFN 161800Z 35004KT 9999 NSC 25/14 Q1009 R28/CLRD70 NOSIG
TAF UTFN 161700Z 1618/1718 34010KT 9999 NSC TX36/1710Z TN22/1700Z 
     TEMPO 1618/1624 VRB02KT FEW050CB
       
UTNN 161800Z 01010KT CAVOK 27/07 Q1014 R33/CLRD60 NOSIG
TAF UTNN 161700Z 1618/1718 35010G20KT CAVOK 
     TEMPO 1620/1706 VRB04KT 
     TEMPO 1706/1712 03012G22KT
       
UTNU 161800Z 35004KT CAVOK 24/11 Q1012 R31/CLRS70 NOSIG
TAF UTNU 161703Z 1618/1718 02010G20KT 7000 SCT050 SCT100 
     TEMPO 1618/1624 07012G22KT SCT040CB BKN100
       
UTSA 161800Z 02008KT 9999 NSC 28/05 Q1010 R07/CLRD70 NOSIG
TAF UTSA 161701Z 1618/1718 01010KT 7000 NSC TX35/1711Z 
     TEMPO 1618/1704 VRB03KT 
     TEMPO 1704/1712 03014G24KT
       
UTSB 161800Z 01010KT CAVOK 29/08 Q1009 R01/CLRD70 NOSIG
TAF UTSB 161700Z 1618/1718 35010KT 7000 NSC TX35/1711Z 
     TEMPO 1618/1704 VRB03KT 
     TEMPO 1704/1712 01014G24KT
       
UTSK 161800Z 36008KT CAVOK 29/06 Q1007 R34/CLRD70
TAF UTSK 161204Z 1613/1622 VRB04KT CAVOK 
     TEMPO 1613/1622 34010G20KT
       
UTSS 161800Z 19004KT 140V220 6000 NSC 26/06 Q1011 R09/70D NOSIG
TAF UTSS 161100Z 1612/1712 12010G20KT 9999 NSC TX37/1710Z 
     TEMPO 1612/1615 06014G24KT
       
UTST 161800Z 19008KT CAVOK 30/06 Q1004 R88/CLRD70 NOSIG
TAF UTST 161700Z 1618/1718 26012G22KT 5000 HZ NSC TX39/1711Z 
     TEMPO 1700/1711 28021G31KT 1500 DS
       
UTTT 161800Z 36014KT 330V030 CAVOK 29/08 Q1010 R08R/CLRD70 NOSIG
TAF UTTT 161700Z 1618/1718 33012KT 7000 NSC TX36/1710Z 
     TEMPO 1618/1624 30012G22KT
       
UTDL 161800Z 25006MPS 9999 SCT086 27/07 Q1010 R26/CLRD70 NOSIG RMK QFE719/0959
TAF UTDL 161800Z 1619/1704 24005MPS 9999 NSC 
     TEMPO 1619/1704 VRB02MPS